Time,TemperatureF,DewpointF,PressureIn,WindDirection,WindDirectionDegrees,WindSpeedMPH,WindSpeedGustMPH,Humidity,HourlyPrecipIn,Conditions,Clouds,dailyrainin,SoftwareType,DateUTC
2013-02-28 00:00:00,37.2,33.7,29.81,NW,313,0.0,0.0,87,0.00,,,0.00,Wunderground v.1.15,2013-02-28 05:00:00,
2013-02-28 00:02:00,37.1,33.9,29.81,NW,313,0.0,0.0,88,0.00,,,0.00,Wunderground v.1.15,2013-02-28 05:02:00,
2013-02-28 00:08:00,37.0,33.8,29.81,NW,313,0.0,0.0,88,0.00,,,0.00,Wunderground v.1.15,2013-02-28 05:08:00,
2013-02-28 00:12:00,36.9,33.4,29.81,NW,313,0.0,0.0,87,0.00,,,0.00,Wunderground v.1.15,2013-02-28 05:12:00,
2013-02-28 00:14:00,36.9,33.7,29.80,NW,313,0.0,0.0,88,0.00,,,0.00,Wunderground v.1.15,2013-02-28 05:14:00,
2013-02-28 00:20:00,36.9,33.7,29.80,NW,313,0.0,0.0,88,0.00,,,0.00,Wunderground v.1.15,2013-02-28 05:20:00,
2013-02-28 00:26:00,36.8,33.9,29.80,NW,313,0.0,0.0,89,0.00,,,0.00,Wunderground v.1.15,2013-02-28 05:26:00,
2013-02-28 00:32:00,36.8,33.9,29.80,NW,313,0.0,0.0,89,0.00,,,0.00,Wunderground v.1.15,2013-02-28 05:32:00,
2013-02-28 00:38:00,36.9,34.0,29.80,NW,313,0.0,0.0,89,0.00,,,0.00,Wunderground v.1.15,2013-02-28 05:38:00,
2013-02-28 00:44:00,37.0,33.8,29.80,NW,313,0.0,0.0,88,0.00,,,0.00,Wunderground v.1.15,2013-02-28 05:44:00,
2013-02-28 00:50:00,36.9,33.7,29.80,NW,313,0.0,0.0,88,0.00,,,0.00,Wunderground v.1.15,2013-02-28 05:50:00,
2013-02-28 00:56:00,36.9,33.7,29.80,NW,313,0.0,0.0,88,0.00,,,0.00,Wunderground v.1.15,2013-02-28 05:56:00,
2013-02-28 01:02:00,36.8,33.9,29.80,NW,313,0.0,0.0,89,0.00,,,0.00,Wunderground v.1.15,2013-02-28 06:02:00,
2013-02-28 01:08:00,36.5,33.6,29.80,NW,313,0.0,0.0,89,0.00,,,0.00,Wunderground v.1.15,2013-02-28 06:08:00,
2013-02-28 01:14:00,36.4,33.5,29.80,WSW,254,0.0,0.0,89,0.00,,,0.00,Wunderground v.1.15,2013-02-28 06:14:00,
2013-02-28 01:20:00,36.4,33.5,29.80,WSW,254,0.0,0.0,89,0.00,,,0.00,Wunderground v.1.15,2013-02-28 06:20:00,
2013-02-28 01:26:00,36.4,31.4,29.80,West,263,2.0,4.0,82,0.00,,,0.00,Wunderground v.1.15,2013-02-28 06:26:00,
2013-02-28 01:32:00,37.0,30.8,29.80,West,263,3.0,3.0,78,0.00,,,0.00,Wunderground v.1.15,2013-02-28 06:32:00,
2013-02-28 01:38:00,37.3,30.4,29.80,West,263,1.0,3.0,76,0.00,,,0.00,Wunderground v.1.15,2013-02-28 06:38:00,
2013-02-28 01:44:00,37.5,30.3,29.79,West,263,1.0,3.0,75,0.00,,,0.00,Wunderground v.1.15,2013-02-28 06:44:00,
2013-02-28 01:50:00,37.3,31.1,29.79,West,263,2.0,4.0,78,0.00,,,0.00,Wunderground v.1.15,2013-02-28 06:50:00,
2013-02-28 01:56:00,37.0,31.4,29.80,NW,323,2.0,4.0,80,0.00,,,0.00,Wunderground v.1.15,2013-02-28 06:56:00,
2013-02-28 02:02:00,36.8,31.2,29.79,NNW,329,3.0,5.0,80,0.00,,,0.00,Wunderground v.1.15,2013-02-28 07:02:00,
2013-02-28 02:08:00,36.6,31.3,29.79,NNW,344,3.0,7.0,81,0.00,,,0.00,Wunderground v.1.15,2013-02-28 07:08:00,
2013-02-28 02:14:00,36.5,31.2,29.79,NNW,344,3.0,4.0,81,0.00,,,0.00,Wunderground v.1.15,2013-02-28 07:14:00,
2013-02-28 02:20:00,36.5,30.9,29.79,NNW,345,3.0,3.0,80,0.00,,,0.00,Wunderground v.1.15,2013-02-28 07:20:00,
2013-02-28 02:26:00,36.6,30.4,29.78,NNW,333,3.0,5.0,78,0.00,,,0.00,Wunderground v.1.15,2013-02-28 07:26:00,
2013-02-28 02:32:00,36.8,29.9,29.78,NW,314,4.0,6.0,76,0.00,,,0.00,Wunderground v.1.15,2013-02-28 07:32:00,
2013-02-28 02:38:00,36.8,29.6,29.78,NW,304,4.0,7.0,75,0.00,,,0.00,Wunderground v.1.15,2013-02-28 07:38:00,
2013-02-28 02:44:00,36.7,29.2,29.78,NW,311,5.0,5.0,74,0.00,,,0.00,Wunderground v.1.15,2013-02-28 07:44:00,
2013-02-28 02:50:00,36.7,29.2,29.77,WNW,291,6.0,7.0,74,0.00,,,0.00,Wunderground v.1.15,2013-02-28 07:50:00,
2013-02-28 02:56:00,36.5,29.0,29.77,WNW,291,5.0,7.0,74,0.00,,,0.00,Wunderground v.1.15,2013-02-28 07:56:00,
2013-02-28 03:02:00,36.3,28.8,29.77,West,281,5.0,6.0,74,0.00,,,0.00,Wunderground v.1.15,2013-02-28 08:02:00,
2013-02-28 03:08:00,36.1,28.6,29.77,WNW,282,4.0,6.0,74,0.00,,,0.00,Wunderground v.1.15,2013-02-28 08:08:00,
2013-02-28 03:14:00,36.1,28.6,29.77,WNW,294,5.0,6.0,74,0.00,,,0.00,Wunderground v.1.15,2013-02-28 08:14:00,
2013-02-28 03:20:00,36.1,28.3,29.77,West,281,5.0,5.0,73,0.00,,,0.00,Wunderground v.1.15,2013-02-28 08:20:00,
2013-02-28 03:26:00,36.0,28.2,29.77,WNW,298,6.0,6.0,73,0.00,,,0.00,Wunderground v.1.15,2013-02-28 08:26:00,
2013-02-28 03:32:00,36.1,27.6,29.77,WNW,300,6.0,8.0,71,0.00,,,0.00,Wunderground v.1.15,2013-02-28 08:32:00,
2013-02-28 03:38:00,36.2,27.4,29.77,WNW,294,6.0,8.0,70,0.00,,,0.00,Wunderground v.1.15,2013-02-28 08:38:00,
2013-02-28 03:44:00,36.2,27.7,29.77,NW,317,6.0,6.0,71,0.00,,,0.00,Wunderground v.1.15,2013-02-28 08:44:00,
2013-02-28 03:50:00,35.9,27.7,29.77,West,281,6.0,6.0,72,0.00,,,0.00,Wunderground v.1.15,2013-02-28 08:50:00,
2013-02-28 03:58:00,35.5,28.0,29.77,NW,312,7.0,7.0,74,0.00,,,0.00,Wunderground v.1.15,2013-02-28 08:58:00,
2013-02-28 04:04:00,35.2,28.1,29.76,NW,318,6.0,7.0,75,0.00,,,0.00,Wunderground v.1.15,2013-02-28 09:04:00,
2013-02-28 04:10:00,35.1,28.0,29.76,NW,323,5.0,5.0,75,0.00,,,0.00,Wunderground v.1.15,2013-02-28 09:10:00,
2013-02-28 04:16:00,35.0,28.2,29.76,NW,321,3.0,5.0,76,0.00,,,0.00,Wunderground v.1.15,2013-02-28 09:16:00,
2013-02-28 04:22:00,34.9,28.1,29.77,NW,321,2.0,2.0,76,0.00,,,0.00,Wunderground v.1.15,2013-02-28 09:22:00,
2013-02-28 04:28:00,34.8,28.0,29.77,NW,321,1.0,2.0,76,0.00,,,0.00,Wunderground v.1.15,2013-02-28 09:28:00,
2013-02-28 04:34:00,34.8,28.0,29.77,NW,321,0.0,1.0,76,0.00,,,0.00,Wunderground v.1.15,2013-02-28 09:34:00,
2013-02-28 04:40:00,34.8,28.0,29.77,NW,321,1.0,1.0,76,0.00,,,0.00,Wunderground v.1.15,2013-02-28 09:40:00,
2013-02-28 04:46:00,34.8,28.0,29.77,NW,321,0.0,1.0,76,0.00,,,0.00,Wunderground v.1.15,2013-02-28 09:46:00,
2013-02-28 04:52:00,34.7,28.2,29.77,NW,321,0.0,0.0,77,0.00,,,0.00,Wunderground v.1.15,2013-02-28 09:52:00,
2013-02-28 04:58:00,34.4,28.2,29.77,NW,321,0.0,0.0,78,0.00,,,0.00,Wunderground v.1.15,2013-02-28 09:58:00,
2013-02-28 05:04:00,34.1,28.3,29.77,NW,311,0.0,3.0,79,0.00,,,0.00,Wunderground v.1.15,2013-02-28 10:04:00,
2013-02-28 05:10:00,33.8,28.0,29.77,NW,311,1.0,1.0,79,0.00,,,0.00,Wunderground v.1.15,2013-02-28 10:10:00,
2013-02-28 05:16:00,33.6,27.8,29.78,NW,311,0.0,1.0,79,0.00,,,0.00,Wunderground v.1.15,2013-02-28 10:16:00,
2013-02-28 05:22:00,33.8,27.4,29.77,NW,311,0.0,0.0,77,0.00,,,0.00,Wunderground v.1.15,2013-02-28 10:22:00,
2013-02-28 05:28:00,33.8,27.0,29.78,NW,311,0.0,0.0,76,0.00,,,0.00,Wunderground v.1.15,2013-02-28 10:28:00,
2013-02-28 05:34:00,34.3,27.5,29.77,NW,311,1.0,3.0,76,0.00,,,0.00,Wunderground v.1.15,2013-02-28 10:34:00,
2013-02-28 05:40:00,34.7,27.3,29.78,NW,310,1.0,4.0,74,0.00,,,0.00,Wunderground v.1.15,2013-02-28 10:40:00,
2013-02-28 05:46:00,34.9,27.5,29.78,NW,308,2.0,6.0,74,0.00,,,0.00,Wunderground v.1.15,2013-02-28 10:46:00,
2013-02-28 05:52:00,34.6,27.5,29.79,NNW,348,5.0,7.0,75,0.00,,,0.00,Wunderground v.1.15,2013-02-28 10:52:00,
2013-02-28 05:58:00,34.2,27.4,29.79,NNW,329,5.0,7.0,76,0.00,,,0.00,Wunderground v.1.15,2013-02-28 10:58:00,
2013-02-28 06:04:00,33.9,27.1,29.79,NW,305,4.0,7.0,76,0.00,,,0.00,Wunderground v.1.15,2013-02-28 11:04:00,
2013-02-28 06:10:00,33.7,26.6,29.79,NNW,329,4.0,6.0,75,0.00,,,0.00,Wunderground v.1.15,2013-02-28 11:10:00,
2013-02-28 06:16:00,33.5,26.4,29.79,NNE,15,3.0,6.0,75,0.00,,,0.00,Wunderground v.1.15,2013-02-28 11:16:00,
2013-02-28 06:22:00,33.5,26.4,29.79,NNE,15,2.0,3.0,75,0.00,,,0.00,Wunderground v.1.15,2013-02-28 11:22:00,
2013-02-28 06:28:00,33.6,26.2,29.79,NNE,15,1.0,3.0,74,0.00,,,0.00,Wunderground v.1.15,2013-02-28 11:28:00,
2013-02-28 06:34:00,33.6,25.9,29.79,NNE,14,2.0,3.0,73,0.00,,,0.00,Wunderground v.1.15,2013-02-28 11:34:00,
2013-02-28 06:40:00,33.7,25.6,29.79,NNE,18,2.0,5.0,72,0.00,,,0.00,Wunderground v.1.15,2013-02-28 11:40:00,
2013-02-28 06:46:00,33.7,25.3,29.79,NNE,17,3.0,5.0,71,0.00,,,0.00,Wunderground v.1.15,2013-02-28 11:46:00,
2013-02-28 06:52:00,33.8,25.0,29.79,NNW,329,3.0,5.0,70,0.00,,,0.00,Wunderground v.1.15,2013-02-28 11:52:00,
2013-02-28 06:58:00,33.9,24.8,29.79,NNW,329,3.0,5.0,69,0.00,,,0.00,Wunderground v.1.15,2013-02-28 11:58:00,
2013-02-28 07:04:00,33.9,24.8,29.79,NW,306,3.0,3.0,69,0.00,,,0.00,Wunderground v.1.15,2013-02-28 12:04:00,
2013-02-28 07:10:00,33.9,24.8,29.79,NNW,338,3.0,4.0,69,0.00,,,0.00,Wunderground v.1.15,2013-02-28 12:10:00,
2013-02-28 07:16:00,33.7,24.3,29.79,North,355,4.0,5.0,68,0.00,,,0.00,Wunderground v.1.15,2013-02-28 12:16:00,
2013-02-28 07:22:00,33.6,24.5,29.80,NNW,334,4.0,6.0,69,0.00,,,0.00,Wunderground v.1.15,2013-02-28 12:22:00,
2013-02-28 07:28:00,33.5,24.4,29.80,North,355,4.0,7.0,69,0.00,,,0.00,Wunderground v.1.15,2013-02-28 12:28:00,
2013-02-28 07:34:00,33.7,24.6,29.80,NNW,344,3.0,5.0,69,0.00,,,0.00,Wunderground v.1.15,2013-02-28 12:34:00,
2013-02-28 07:40:00,33.9,24.4,29.80,NNW,347,3.0,3.0,68,0.00,,,0.00,Wunderground v.1.15,2013-02-28 12:40:00,
2013-02-28 07:46:00,33.9,24.4,29.80,North,355,3.0,5.0,68,0.00,,,0.00,Wunderground v.1.15,2013-02-28 12:46:00,
2013-02-28 07:52:00,34.1,24.3,29.81,NNW,347,3.0,4.0,67,0.00,,,0.00,Wunderground v.1.15,2013-02-28 12:52:00,
2013-02-28 07:58:00,34.4,24.2,29.81,NW,313,4.0,4.0,66,0.00,,,0.00,Wunderground v.1.15,2013-02-28 12:58:00,
2013-02-28 08:04:00,34.6,24.0,29.81,NW,317,5.0,7.0,65,0.00,,,0.00,Wunderground v.1.15,2013-02-28 13:04:00,
2013-02-28 08:10:00,34.5,23.9,29.81,NW,312,6.0,8.0,65,0.00,,,0.00,Wunderground v.1.15,2013-02-28 13:10:00,
2013-02-28 08:16:00,34.3,23.4,29.81,NW,305,7.0,9.0,64,0.00,,,0.00,Wunderground v.1.15,2013-02-28 13:16:00,
2013-02-28 08:22:00,34.4,23.8,29.82,WNW,295,7.0,10.0,65,0.00,,,0.00,Wunderground v.1.15,2013-02-28 13:22:00,
2013-02-28 08:28:00,34.6,23.7,29.82,NW,319,6.0,10.0,64,0.00,,,0.00,Wunderground v.1.15,2013-02-28 13:28:00,
2013-02-28 08:34:00,34.8,23.1,29.83,NW,317,6.0,11.0,62,0.00,,,0.00,Wunderground v.1.15,2013-02-28 13:34:00,
2013-02-28 08:40:00,35.1,23.4,29.83,WNW,294,7.0,8.0,62,0.00,,,0.00,Wunderground v.1.15,2013-02-28 13:40:00,
2013-02-28 08:46:00,35.3,23.6,29.83,WNW,296,7.0,11.0,62,0.00,,,0.00,Wunderground v.1.15,2013-02-28 13:46:00,
2013-02-28 08:52:00,35.4,22.9,29.83,NW,319,8.0,11.0,60,0.00,,,0.00,Wunderground v.1.15,2013-02-28 13:52:00,
2013-02-28 08:58:00,35.7,23.2,29.83,NW,312,7.0,11.0,60,0.00,,,0.00,Wunderground v.1.15,2013-02-28 13:58:00,
2013-02-28 09:04:00,35.6,23.1,29.83,WSW,257,6.0,6.0,60,0.00,,,0.00,Wunderground v.1.15,2013-02-28 14:04:00,
2013-02-28 09:10:00,35.5,23.0,29.83,NNW,335,7.0,7.0,60,0.00,,,0.00,Wunderground v.1.15,2013-02-28 14:10:00,
2013-02-28 09:16:00,35.6,23.1,29.83,NW,310,8.0,11.0,60,0.00,,,0.00,Wunderground v.1.15,2013-02-28 14:16:00,
2013-02-28 09:22:00,35.7,22.8,29.83,NW,319,7.0,7.0,59,0.00,,,0.00,Wunderground v.1.15,2013-02-28 14:22:00,
2013-02-28 09:28:00,35.9,23.4,29.83,NW,309,6.0,7.0,60,0.00,,,0.00,Wunderground v.1.15,2013-02-28 14:28:00,
2013-02-28 09:34:00,35.9,23.4,29.84,NW,325,5.0,6.0,60,0.00,,,0.00,Wunderground v.1.15,2013-02-28 14:34:00,
2013-02-28 09:40:00,35.8,24.0,29.84,NNE,17,6.0,6.0,62,0.00,,,0.00,Wunderground v.1.15,2013-02-28 14:40:00,
2013-02-28 09:46:00,35.9,24.1,29.84,WNW,302,6.0,8.0,62,0.00,,,0.00,Wunderground v.1.15,2013-02-28 14:46:00,
2013-02-28 09:52:00,36.1,24.3,29.84,NW,313,5.0,5.0,62,0.00,,,0.00,Wunderground v.1.15,2013-02-28 14:52:00,
2013-02-28 09:58:00,36.2,24.8,29.84,NNW,345,5.0,8.0,63,0.00,,,0.00,Wunderground v.1.15,2013-02-28 14:58:00,
2013-02-28 10:04:00,35.9,24.5,29.84,NW,311,6.0,9.0,63,0.00,,,0.00,Wunderground v.1.15,2013-02-28 15:04:00,
2013-02-28 10:10:00,36.2,25.6,29.84,NNW,329,6.0,7.0,65,0.00,,,0.00,Wunderground v.1.15,2013-02-28 15:10:00,
2013-02-28 10:16:00,36.4,25.4,29.84,NNW,342,6.0,8.0,64,0.00,,,0.00,Wunderground v.1.15,2013-02-28 15:16:00,
2013-02-28 10:22:00,36.4,25.0,29.84,NW,319,7.0,10.0,63,0.00,,,0.00,Wunderground v.1.15,2013-02-28 15:22:00,
2013-02-28 10:28:00,36.2,24.8,29.84,NW,315,8.0,10.0,63,0.00,,,0.00,Wunderground v.1.15,2013-02-28 15:28:00,
2013-02-28 10:34:00,36.1,25.1,29.84,NNW,340,8.0,8.0,64,0.00,,,0.00,Wunderground v.1.15,2013-02-28 15:34:00,
2013-02-28 10:40:00,36.2,25.2,29.84,West,281,6.0,6.0,64,0.00,,,0.00,Wunderground v.1.15,2013-02-28 15:40:00,
2013-02-28 10:46:00,36.5,25.1,29.84,West,261,6.0,7.0,63,0.00,,,0.00,Wunderground v.1.15,2013-02-28 15:46:00,
2013-02-28 10:52:00,37.1,25.3,29.84,NNW,332,6.0,9.0,62,0.00,,,0.00,Wunderground v.1.15,2013-02-28 15:52:00,
2013-02-28 10:58:00,37.6,25.0,29.84,West,276,5.0,9.0,60,0.00,,,0.00,Wunderground v.1.15,2013-02-28 15:58:00,
2013-02-28 11:04:00,37.8,24.7,29.84,NW,306,5.0,7.0,59,0.00,,,0.00,Wunderground v.1.15,2013-02-28 16:04:00,
2013-02-28 11:10:00,38.2,24.7,29.85,WNW,284,6.0,6.0,58,0.00,,,0.00,Wunderground v.1.15,2013-02-28 16:10:00,
2013-02-28 11:16:00,38.6,25.1,29.85,WSW,257,7.0,11.0,58,0.00,,,0.00,Wunderground v.1.15,2013-02-28 16:16:00,
2013-02-28 11:22:00,39.4,25.0,29.85,West,266,6.0,7.0,56,0.00,,,0.00,Wunderground v.1.15,2013-02-28 16:22:00,
2013-02-28 11:28:00,39.7,24.8,29.85,WNW,288,7.0,9.0,55,0.00,,,0.00,Wunderground v.1.15,2013-02-28 16:28:00,
2013-02-28 11:34:00,39.2,24.8,29.85,NNW,348,7.0,13.0,56,0.00,,,0.00,Wunderground v.1.15,2013-02-28 16:34:00,
2013-02-28 11:40:00,38.3,24.8,29.85,NNW,347,7.0,7.0,58,0.00,,,0.00,Wunderground v.1.15,2013-02-28 16:40:00,
2013-02-28 11:46:00,38.3,25.2,29.85,NNW,348,6.0,7.0,59,0.00,,,0.00,Wunderground v.1.15,2013-02-28 16:46:00,
2013-02-28 11:52:00,38.3,24.4,29.85,NW,309,7.0,8.0,57,0.00,,,0.00,Wunderground v.1.15,2013-02-28 16:52:00,
2013-02-28 11:58:00,38.9,24.1,29.85,NW,310,9.0,9.0,55,0.00,,,0.00,Wunderground v.1.15,2013-02-28 16:58:00,
2013-02-28 12:04:00,38.6,23.8,29.85,NW,315,9.0,13.0,55,0.00,,,0.00,Wunderground v.1.15,2013-02-28 17:04:00,
2013-02-28 12:10:00,38.6,23.8,29.86,NW,321,7.0,7.0,55,0.00,,,0.00,Wunderground v.1.15,2013-02-28 17:10:00,
2013-02-28 12:16:00,38.5,23.7,29.85,WNW,293,6.0,8.0,55,0.00,,,0.00,Wunderground v.1.15,2013-02-28 17:16:00,
2013-02-28 12:22:00,38.7,23.9,29.85,WNW,294,7.0,9.0,55,0.00,,,0.00,Wunderground v.1.15,2013-02-28 17:22:00,
2013-02-28 12:28:00,39.5,24.2,29.85,NW,320,8.0,12.0,54,0.00,,,0.00,Wunderground v.1.15,2013-02-28 17:28:00,
2013-02-28 12:34:00,39.9,25.0,29.85,North,360,8.0,12.0,55,0.00,,,0.00,Wunderground v.1.15,2013-02-28 17:34:00,
2013-02-28 12:40:00,39.6,25.6,29.85,NW,313,9.0,12.0,57,0.00,,,0.00,Wunderground v.1.15,2013-02-28 17:40:00,
2013-02-28 12:46:00,39.5,25.9,29.85,NNW,336,10.0,12.0,58,0.00,,,0.00,Wunderground v.1.15,2013-02-28 17:46:00,
2013-02-28 12:52:00,39.3,27.0,29.86,North,350,9.0,13.0,61,0.00,,,0.00,Wunderground v.1.15,2013-02-28 17:52:00,
2013-02-28 12:58:00,38.7,26.4,29.86,NNW,336,9.0,13.0,61,0.00,,,0.00,Wunderground v.1.15,2013-02-28 17:58:00,
2013-02-28 13:04:00,38.2,26.3,29.86,NNW,327,8.0,15.0,62,0.00,,,0.00,Wunderground v.1.15,2013-02-28 18:04:00,
2013-02-28 13:10:00,37.6,26.5,29.86,NW,309,10.0,11.0,64,0.00,,,0.00,Wunderground v.1.15,2013-02-28 18:10:00,
2013-02-28 13:16:00,38.0,27.3,29.86,North,355,9.0,11.0,65,0.00,,,0.00,Wunderground v.1.15,2013-02-28 18:16:00,
2013-02-28 13:22:00,38.4,27.7,29.86,North,355,8.0,8.0,65,0.00,,,0.00,Wunderground v.1.15,2013-02-28 18:22:00,
2013-02-28 13:28:00,38.4,26.9,29.86,NW,314,8.0,8.0,63,0.00,,,0.00,Wunderground v.1.15,2013-02-28 18:28:00,
2013-02-28 13:34:00,38.1,26.6,29.85,North,355,8.0,9.0,63,0.00,,,0.00,Wunderground v.1.15,2013-02-28 18:34:00,
2013-02-28 13:40:00,37.9,26.4,29.86,North,5,9.0,9.0,63,0.00,,,0.00,Wunderground v.1.15,2013-02-28 18:40:00,
2013-02-28 13:46:00,37.3,26.6,29.85,NNW,338,9.0,12.0,65,0.00,,,0.00,Wunderground v.1.15,2013-02-28 18:46:00,
2013-02-28 13:52:00,38.3,26.8,29.86,NNW,348,9.0,9.0,63,0.00,,,0.00,Wunderground v.1.15,2013-02-28 18:52:00,
2013-02-28 13:58:00,37.7,25.8,29.86,NW,313,10.0,11.0,62,0.00,,,0.00,Wunderground v.1.15,2013-02-28 18:58:00,
2013-02-28 14:04:00,37.8,25.9,29.85,NW,317,9.0,11.0,62,0.00,,,0.00,Wunderground v.1.15,2013-02-28 19:04:00,
2013-02-28 14:10:00,38.0,25.7,29.86,NW,317,8.0,8.0,61,0.00,,,0.00,Wunderground v.1.15,2013-02-28 19:10:00,
2013-02-28 14:16:00,37.7,25.5,29.85,NNE,32,9.0,11.0,61,0.00,,,0.00,Wunderground v.1.15,2013-02-28 19:16:00,
2013-02-28 14:22:00,37.3,25.1,29.85,NW,325,9.0,9.0,61,0.00,,,0.00,Wunderground v.1.15,2013-02-28 19:22:00,
2013-02-28 14:28:00,37.7,25.5,29.86,NW,323,10.0,11.0,61,0.00,,,0.00,Wunderground v.1.15,2013-02-28 19:28:00,
2013-02-28 14:34:00,38.2,25.5,29.86,North,351,8.0,12.0,60,0.00,,,0.00,Wunderground v.1.15,2013-02-28 19:34:00,
2013-02-28 14:40:00,38.1,25.0,29.86,NW,307,9.0,9.0,59,0.00,,,0.00,Wunderground v.1.15,2013-02-28 19:40:00,
2013-02-28 14:46:00,38.1,25.0,29.86,NW,312,9.0,13.0,59,0.00,,,0.00,Wunderground v.1.15,2013-02-28 19:46:00,
2013-02-28 14:52:00,38.7,25.6,29.86,NW,304,9.0,9.0,59,0.00,,,0.00,Wunderground v.1.15,2013-02-28 19:52:00,
2013-02-28 14:58:00,39.8,24.9,29.86,NNW,337,7.0,11.0,55,0.00,,,0.00,Wunderground v.1.15,2013-02-28 19:58:00,
2013-02-28 15:04:00,40.1,24.3,29.85,West,268,8.0,10.0,53,0.00,,,0.00,Wunderground v.1.15,2013-02-28 20:04:00,
2013-02-28 15:10:00,40.2,24.4,29.85,North,351,7.0,7.0,53,0.00,,,0.00,Wunderground v.1.15,2013-02-28 20:10:00,
2013-02-28 15:16:00,39.8,23.6,29.86,North,360,6.0,10.0,52,0.00,,,0.00,Wunderground v.1.15,2013-02-28 20:16:00,
2013-02-28 15:22:00,39.8,23.6,29.86,WNW,294,6.0,6.0,52,0.00,,,0.00,Wunderground v.1.15,2013-02-28 20:22:00,
2013-02-28 15:28:00,40.6,23.4,29.86,NNW,344,6.0,9.0,50,0.00,,,0.00,Wunderground v.1.15,2013-02-28 20:28:00,
2013-02-28 15:34:00,40.8,22.6,29.86,NW,315,8.0,9.0,48,0.00,,,0.00,Wunderground v.1.15,2013-02-28 20:34:00,
2013-02-28 15:40:00,40.6,23.4,29.86,NNW,340,9.0,9.0,50,0.00,,,0.00,Wunderground v.1.15,2013-02-28 20:40:00,
2013-02-28 15:46:00,39.8,23.1,29.87,NW,319,8.0,9.0,51,0.00,,,0.00,Wunderground v.1.15,2013-02-28 20:46:00,
2013-02-28 15:52:00,40.0,23.3,29.86,NNE,20,7.0,14.0,51,0.00,,,0.00,Wunderground v.1.15,2013-02-28 20:52:00,
2013-02-28 15:58:00,40.0,22.8,29.87,NNW,336,8.0,14.0,50,0.00,,,0.00,Wunderground v.1.15,2013-02-28 20:58:00,
2013-02-28 16:04:00,39.6,22.9,29.87,North,5,10.0,11.0,51,0.00,,,0.00,Wunderground v.1.15,2013-02-28 21:04:00,
2013-02-28 16:10:00,39.7,24.0,29.87,NNW,329,8.0,12.0,53,0.00,,,0.00,Wunderground v.1.15,2013-02-28 21:10:00,
2013-02-28 16:16:00,39.8,23.6,29.88,NNW,336,7.0,12.0,52,0.00,,,0.00,Wunderground v.1.15,2013-02-28 21:16:00,
2013-02-28 16:22:00,39.6,23.9,29.88,NNE,13,7.0,8.0,53,0.00,,,0.00,Wunderground v.1.15,2013-02-28 21:22:00,
2013-02-28 16:28:00,39.4,23.7,29.88,North,355,8.0,8.0,53,0.00,,,0.00,Wunderground v.1.15,2013-02-28 21:28:00,
2013-02-28 16:34:00,38.8,23.6,29.88,NNW,347,9.0,9.0,54,0.00,,,0.00,Wunderground v.1.15,2013-02-28 21:34:00,
2013-02-28 16:40:00,39.1,23.8,29.88,NW,323,9.0,9.0,54,0.00,,,0.00,Wunderground v.1.15,2013-02-28 21:40:00,
2013-02-28 16:46:00,38.5,23.3,29.88,NE,38,8.0,12.0,54,0.00,,,0.00,Wunderground v.1.15,2013-02-28 21:46:00,
2013-02-28 16:52:00,38.5,23.7,29.89,NW,308,9.0,12.0,55,0.00,,,0.00,Wunderground v.1.15,2013-02-28 21:52:00,
2013-02-28 16:58:00,38.1,23.8,29.89,North,355,10.0,12.0,56,0.00,,,0.00,Wunderground v.1.15,2013-02-28 21:58:00,
2013-02-28 17:04:00,37.9,23.6,29.90,NNW,327,9.0,10.0,56,0.00,,,0.00,Wunderground v.1.15,2013-02-28 22:04:00,
2013-02-28 17:10:00,37.6,23.7,29.90,North,349,8.0,9.0,57,0.00,,,0.00,Wunderground v.1.15,2013-02-28 22:10:00,
2013-02-28 17:16:00,37.2,23.4,29.90,NW,314,8.0,13.0,57,0.00,,,0.00,Wunderground v.1.15,2013-02-28 22:16:00,
2013-02-28 17:22:00,37.5,23.6,29.91,NNW,348,7.0,8.0,57,0.00,,,0.00,Wunderground v.1.15,2013-02-28 22:22:00,
2013-02-28 17:28:00,36.9,23.5,29.91,NW,309,9.0,10.0,58,0.00,,,0.00,Wunderground v.1.15,2013-02-28 22:28:00,
2013-02-28 17:34:00,36.7,23.7,29.91,North,350,10.0,11.0,59,0.00,,,0.00,Wunderground v.1.15,2013-02-28 22:34:00,
2013-02-28 17:40:00,36.2,23.2,29.91,NW,325,9.0,9.0,59,0.00,,,0.00,Wunderground v.1.15,2013-02-28 22:40:00,
2013-02-28 17:46:00,35.8,23.3,29.92,North,350,9.0,12.0,60,0.00,,,0.00,Wunderground v.1.15,2013-02-28 22:46:00,
2013-02-28 17:52:00,35.3,23.2,29.92,NW,318,9.0,9.0,61,0.00,,,0.00,Wunderground v.1.15,2013-02-28 22:52:00,
2013-02-28 17:58:00,35.1,23.4,29.92,NE,38,8.0,9.0,62,0.00,,,0.00,Wunderground v.1.15,2013-02-28 22:58:00,
2013-02-28 18:04:00,34.9,23.2,29.93,North,355,7.0,16.0,62,0.00,,,0.00,Wunderground v.1.15,2013-02-28 23:04:00,
2013-02-28 18:10:00,34.5,23.2,29.93,NNW,346,9.0,9.0,63,0.00,,,0.00,Wunderground v.1.15,2013-02-28 23:10:00,
2013-02-28 18:16:00,34.1,23.2,29.94,NW,325,10.0,13.0,64,0.00,,,0.00,Wunderground v.1.15,2013-02-28 23:16:00,
2013-02-28 18:22:00,33.9,23.4,29.94,NW,314,9.0,9.0,65,0.00,,,0.00,Wunderground v.1.15,2013-02-28 23:22:00,
2013-02-28 18:28:00,33.8,23.3,29.94,NNW,341,7.0,11.0,65,0.00,,,0.00,Wunderground v.1.15,2013-02-28 23:28:00,
2013-02-28 18:34:00,33.7,23.5,29.95,NW,313,5.0,7.0,66,0.00,,,0.00,Wunderground v.1.15,2013-02-28 23:34:00,
2013-02-28 18:40:00,33.6,23.4,29.95,NW,322,4.0,4.0,66,0.00,,,0.00,Wunderground v.1.15,2013-02-28 23:40:00,
2013-02-28 18:46:00,33.6,23.1,29.96,NW,316,7.0,12.0,65,0.00,,,0.00,Wunderground v.1.15,2013-02-28 23:46:00,
2013-02-28 18:52:00,33.5,23.0,29.96,NW,326,9.0,15.0,65,0.00,,,0.00,Wunderground v.1.15,2013-02-28 23:52:00,
2013-02-28 18:58:00,33.4,22.5,29.96,North,349,10.0,16.0,64,0.00,,,0.00,Wunderground v.1.15,2013-02-28 23:58:00,
2013-02-28 19:04:00,33.3,22.8,29.96,NNW,346,9.0,10.0,65,0.00,,,0.00,Wunderground v.1.15,2013-03-01 00:04:00,
2013-02-28 19:10:00,33.3,22.8,29.97,North,360,7.0,7.0,65,0.00,,,0.00,Wunderground v.1.15,2013-03-01 00:10:00,
2013-02-28 19:16:00,33.3,22.8,29.97,North,350,5.0,7.0,65,0.00,,,0.00,Wunderground v.1.15,2013-03-01 00:16:00,
2013-02-28 19:22:00,33.3,22.8,29.97,NW,319,6.0,6.0,65,0.00,,,0.00,Wunderground v.1.15,2013-03-01 00:22:00,
2013-02-28 19:28:00,33.2,22.7,29.96,NW,322,7.0,10.0,65,0.00,,,0.00,Wunderground v.1.15,2013-03-01 00:28:00,
2013-02-28 19:34:00,33.2,22.3,29.97,NW,309,8.0,15.0,64,0.00,,,0.00,Wunderground v.1.15,2013-03-01 00:34:00,
2013-02-28 19:40:00,33.2,22.3,29.97,NNW,338,8.0,8.0,64,0.00,,,0.00,Wunderground v.1.15,2013-03-01 00:40:00,
2013-02-28 19:46:00,33.2,22.7,29.97,NW,308,7.0,10.0,65,0.00,,,0.00,Wunderground v.1.15,2013-03-01 00:46:00,
2013-02-28 19:52:00,33.1,22.6,29.96,WNW,282,7.0,10.0,65,0.00,,,0.00,Wunderground v.1.15,2013-03-01 00:52:00,
2013-02-28 19:58:00,33.1,22.2,29.96,NW,319,8.0,11.0,64,0.00,,,0.00,Wunderground v.1.15,2013-03-01 00:58:00,
2013-02-28 20:04:00,33.0,22.1,29.96,NW,316,11.0,16.0,64,0.00,,,0.00,Wunderground v.1.15,2013-03-01 01:04:00,
2013-02-28 20:10:00,32.9,22.0,29.96,NW,321,11.0,14.0,64,0.00,,,0.00,Wunderground v.1.15,2013-03-01 01:10:00,
2013-02-28 20:16:00,32.9,22.0,29.96,NW,312,10.0,17.0,64,0.00,,,0.00,Wunderground v.1.15,2013-03-01 01:16:00,
2013-02-28 20:22:00,32.9,22.4,29.97,NW,317,9.0,10.0,65,0.00,,,0.00,Wunderground v.1.15,2013-03-01 01:22:00,
2013-02-28 20:28:00,32.8,22.3,29.96,NW,316,9.0,12.0,65,0.00,,,0.00,Wunderground v.1.15,2013-03-01 01:28:00,
2013-02-28 20:34:00,32.8,22.3,29.96,NW,319,10.0,10.0,65,0.00,,,0.00,Wunderground v.1.15,2013-03-01 01:34:00,
2013-02-28 20:40:00,32.8,22.3,29.96,WNW,294,7.0,8.0,65,0.00,,,0.00,Wunderground v.1.15,2013-03-01 01:40:00,
2013-02-28 20:46:00,32.8,22.3,29.95,NW,307,6.0,8.0,65,0.00,,,0.00,Wunderground v.1.15,2013-03-01 01:46:00,
2013-02-28 20:52:00,32.9,22.4,29.95,WNW,295,6.0,6.0,65,0.00,,,0.00,Wunderground v.1.15,2013-03-01 01:52:00,
2013-02-28 20:58:00,32.9,22.4,29.96,WNW,301,5.0,8.0,65,0.00,,,0.00,Wunderground v.1.15,2013-03-01 01:58:00,
2013-02-28 21:04:00,33.0,22.5,29.96,NW,305,6.0,8.0,65,0.00,,,0.00,Wunderground v.1.15,2013-03-01 02:04:00,
2013-02-28 21:10:00,33.0,22.5,29.96,NW,307,7.0,7.0,65,0.00,,,0.00,Wunderground v.1.15,2013-03-01 02:10:00,
2013-02-28 21:16:00,33.0,22.5,29.97,NW,313,6.0,10.0,65,0.00,,,0.00,Wunderground v.1.15,2013-03-01 02:16:00,
2013-02-28 21:22:00,33.0,22.5,29.96,NW,315,6.0,6.0,65,0.00,,,0.00,Wunderground v.1.15,2013-03-01 02:22:00,
2013-02-28 21:28:00,33.0,22.5,29.96,NNW,333,6.0,9.0,65,0.00,,,0.00,Wunderground v.1.15,2013-03-01 02:28:00,
2013-02-28 21:34:00,32.9,22.8,29.96,NNW,346,5.0,7.0,66,0.00,,,0.00,Wunderground v.1.15,2013-03-01 02:34:00,
2013-02-28 21:40:00,32.7,22.9,29.96,NNW,336,5.0,5.0,67,0.00,,,0.00,Wunderground v.1.15,2013-03-01 02:40:00,
2013-02-28 21:46:00,32.6,22.8,29.97,North,360,5.0,10.0,67,0.00,,,0.00,Wunderground v.1.15,2013-03-01 02:46:00,
2013-02-28 21:52:00,32.4,23.0,29.96,WNW,292,7.0,7.0,68,0.00,,,0.00,Wunderground v.1.15,2013-03-01 02:52:00,
2013-02-28 21:58:00,32.3,23.3,29.96,NW,323,6.0,7.0,69,0.00,,,0.00,Wunderground v.1.15,2013-03-01 02:58:00,
2013-02-28 22:04:00,32.2,23.2,29.97,NNW,332,5.0,9.0,69,0.00,,,0.00,Wunderground v.1.15,2013-03-01 03:04:00,
2013-02-28 22:10:00,32.1,23.4,29.97,North,355,6.0,6.0,70,0.00,,,0.00,Wunderground v.1.15,2013-03-01 03:10:00,
2013-02-28 22:16:00,32.1,23.4,29.97,NW,307,4.0,7.0,70,0.00,,,0.00,Wunderground v.1.15,2013-03-01 03:16:00,
2013-02-28 22:22:00,32.1,23.4,29.97,NW,311,5.0,8.0,70,0.00,,,0.00,Wunderground v.1.15,2013-03-01 03:22:00,
2013-02-28 22:28:00,32.1,23.4,29.97,NNE,22,5.0,8.0,70,0.00,,,0.00,Wunderground v.1.15,2013-03-01 03:28:00,
2013-02-28 22:34:00,32.0,23.7,29.97,NNW,348,6.0,8.0,71,0.00,,,0.00,Wunderground v.1.15,2013-03-01 03:34:00,
2013-02-28 22:40:00,31.9,23.6,29.97,NNW,342,6.0,6.0,71,0.00,,,0.00,Wunderground v.1.15,2013-03-01 03:40:00,
2013-02-28 22:46:00,31.9,23.6,29.97,NNW,332,5.0,9.0,71,0.00,,,0.00,Wunderground v.1.15,2013-03-01 03:46:00,
2013-02-28 22:52:00,31.9,23.6,29.97,NNW,333,5.0,8.0,71,0.00,,,0.00,Wunderground v.1.15,2013-03-01 03:52:00,
2013-02-28 22:58:00,31.8,23.8,29.97,NNW,339,6.0,13.0,72,0.00,,,0.00,Wunderground v.1.15,2013-03-01 03:58:00,
2013-02-28 23:06:00,31.7,23.7,29.96,NNW,338,7.0,9.0,72,0.00,,,0.00,Wunderground v.1.15,2013-03-01 04:06:00,
2013-02-28 23:12:00,31.8,24.1,29.96,NNE,20,7.0,7.0,73,0.00,,,0.00,Wunderground v.1.15,2013-03-01 04:12:00,
2013-02-28 23:18:00,31.7,24.0,29.96,NW,318,7.0,9.0,73,0.00,,,0.00,Wunderground v.1.15,2013-03-01 04:18:00,
2013-02-28 23:24:00,31.6,23.9,29.97,NNW,339,7.0,7.0,73,0.00,,,0.00,Wunderground v.1.15,2013-03-01 04:24:00,
2013-02-28 23:30:00,31.6,23.9,29.97,NW,324,6.0,6.0,73,0.00,,,0.00,Wunderground v.1.15,2013-03-01 04:30:00,
2013-02-28 23:36:00,31.7,24.0,29.97,NW,313,6.0,8.0,73,0.00,,,0.00,Wunderground v.1.15,2013-03-01 04:36:00,
2013-02-28 23:42:00,31.7,24.4,29.97,NNW,337,6.0,6.0,74,0.00,,,0.00,Wunderground v.1.15,2013-03-01 04:42:00,
2013-02-28 23:48:00,31.6,24.3,29.97,NNW,348,6.0,6.0,74,0.00,,,0.00,Wunderground v.1.15,2013-03-01 04:48:00,
2013-02-28 23:54:00,31.5,24.2,29.97,North,9,6.0,8.0,74,0.00,,,0.00,Wunderground v.1.15,2013-03-01 04:54:00,